Time;durP1;ratioP1;P1;durP2;ratioP2;P2;SDS_P1;SDS_P2;PMS_P1;PMS_P2;Temp;Humidity;BMP_temperature;BMP_pressure;BME280_temperature;BME280_humidity;BME280_pressure;Samples;Min_cycle;Max_cycle;Signal;HPM_P1;HPM_P2
2023/12/16 00:01:22;;;;;;;12.80;5.28;;;;;;;7.70;51.62;99883.16;4425479;32;20090;-81
2023/12/16 00:03:49;;;;;;;13.70;5.45;;;;;;;6.36;56.96;99882.19;4425640;32;20096;-81
2023/12/16 00:06:20;;;;;;;12.77;5.00;;;;;;;5.55;59.99;99887.75;4425483;32;20099;-81
2023/12/16 00:08:47;;;;;;;13.40;5.45;;;;;;;5.73;60.31;99895.53;4424809;32;20148;-81
2023/12/16 00:11:14;;;;;;;12.43;4.50;;;;;;;5.80;59.63;99892.16;4425633;32;20100;-81
2023/12/16 00:13:42;;;;;;;12.88;5.07;;;;;;;5.96;59.05;99886.31;4425535;32;20106;-81
2023/12/16 00:16:09;;;;;;;12.40;5.80;;;;;;;5.84;59.70;99877.66;4411414;32;20085;-81
2023/12/16 00:18:36;;;;;;;12.23;4.85;;;;;;;5.54;60.14;99868.12;4425585;32;20117;-80
2023/12/16 00:21:04;;;;;;;15.05;5.15;;;;;;;5.28;61.28;99880.72;4425582;32;20112;-81
2023/12/16 00:23:31;;;;;;;12.30;4.90;;;;;;;4.92;63.33;99880.44;4425080;32;20089;-81
2023/12/16 00:25:58;;;;;;;12.13;5.15;;;;;;;4.84;63.76;99892.28;4425389;32;20103;-81
2023/12/16 00:28:25;;;;;;;14.60;5.15;;;;;;;5.31;62.68;99896.94;4411680;32;20116;-81
2023/12/16 00:30:52;;;;;;;12.02;4.93;;;;;;;5.38;62.26;99906.38;4425159;32;20443;-81
2023/12/16 00:33:19;;;;;;;11.65;4.62;;;;;;;5.89;59.99;99894.78;4425482;32;20104;-81
2023/12/16 00:35:46;;;;;;;10.95;4.35;;;;;;;5.42;60.97;99890.22;4425422;32;20089;-81
2023/12/16 00:38:13;;;;;;;11.80;4.85;;;;;;;5.45;61.58;99880.00;4425015;32;20110;-81
2023/12/16 00:40:40;;;;;;;11.60;4.35;;;;;;;4.94;63.41;99883.84;4424170;32;20175;-80
2023/12/16 00:43:07;;;;;;;13.10;4.72;;;;;;;5.28;62.75;99889.25;4425259;32;20082;-80
2023/12/16 00:45:34;;;;;;;13.32;5.07;;;;;;;4.20;66.57;99890.72;4425050;32;20577;-81
2023/12/16 00:48:01;;;;;;;12.90;5.07;;;;;;;4.96;64.94;99893.22;4425305;32;20101;-81
2023/12/16 00:50:28;;;;;;;13.27;4.95;;;;;;;4.97;65.07;99897.50;4425034;32;20110;-81
2023/12/16 00:52:55;;;;;;;12.80;4.72;;;;;;;4.98;65.04;99901.78;4425291;32;20094;-80
2023/12/16 00:55:22;;;;;;;15.55;5.07;;;;;;;5.15;65.37;99905.34;4425132;32;20099;-80
2023/12/16 00:57:49;;;;;;;13.52;4.95;;;;;;;5.68;63.22;99912.59;4424917;32;20090;-81
2023/12/16 01:00:16;;;;;;;12.73;4.75;;;;;;;6.04;60.29;99905.12;4411573;32;20124;-80
2023/12/16 01:02:43;;;;;;;11.77;4.65;;;;;;;5.01;62.91;99902.69;4425249;32;20459;-80
2023/12/16 01:05:10;;;;;;;12.37;4.70;;;;;;;4.64;65.05;99909.97;4424833;32;20082;-81
2023/12/16 01:07:37;;;;;;;13.57;4.85;;;;;;;5.37;62.29;99912.38;4425090;32;20108;-80
2023/12/16 01:10:05;;;;;;;11.98;4.53;;;;;;;3.95;67.97;99915.09;4424970;32;20112;-80
2023/12/16 01:12:32;;;;;;;12.18;4.53;;;;;;;4.64;65.41;99916.78;4424781;32;20112;-80
2023/12/16 01:14:59;;;;;;;12.68;4.72;;;;;;;4.62;64.67;99915.91;4425055;32;20131;-80
2023/12/16 01:17:26;;;;;;;12.45;4.47;;;;;;;4.20;67.71;99913.72;4425137;32;20146;-80
2023/12/16 01:19:53;;;;;;;12.43;4.80;;;;;;;3.96;68.75;99930.44;4424716;32;20452;-80
2023/12/16 01:22:20;;;;;;;12.32;4.40;;;;;;;3.74;70.73;99930.97;4425025;32;20117;-80
2023/12/16 01:24:47;;;;;;;13.77;5.30;;;;;;;4.14;69.24;99918.72;4424984;32;20251;-80
2023/12/16 01:27:14;;;;;;;17.08;4.95;;;;;;;3.55;71.93;99913.66;4424594;32;20109;-80
2023/12/16 01:29:41;;;;;;;12.70;4.35;;;;;;;4.01;70.67;99916.03;4424963;32;20098;-80
2023/12/16 01:32:10;;;;;;;13.23;4.78;;;;;;;3.35;72.06;99910.78;4424954;32;20505;-80
2023/12/16 01:34:36;;;;;;;11.32;4.45;;;;;;;3.76;70.49;99911.44;4424641;32;20133;-81
2023/12/16 01:37:04;;;;;;;13.48;4.55;;;;;;;3.97;70.38;99919.38;4424874;32;20443;-80
2023/12/16 01:39:31;;;;;;;13.20;4.43;;;;;;;4.60;68.33;99909.94;4424499;32;20116;-80
2023/12/16 01:41:58;;;;;;;10.45;4.10;;;;;;;4.41;68.14;99913.97;4424898;32;20096;-80
2023/12/16 01:44:25;;;;;;;11.05;4.18;;;;;;;4.01;69.26;99926.25;4424667;32;20081;-80
2023/12/16 01:46:52;;;;;;;12.07;4.22;;;;;;;3.28;71.90;99927.69;4424375;32;20444;-80
2023/12/16 01:49:19;;;;;;;12.55;4.68;;;;;;;3.44;72.17;99931.38;4423713;32;20116;-80
2023/12/16 01:51:46;;;;;;;11.10;4.07;;;;;;;3.31;73.62;99934.56;4424757;32;20086;-80
2023/12/16 01:54:13;;;;;;;11.82;4.12;;;;;;;3.59;73.38;99933.28;4424317;32;20090;-80
2023/12/16 01:56:40;;;;;;;13.98;4.65;;;;;;;3.21;73.89;99923.34;4410737;32;20110;-80
2023/12/16 01:59:08;;;;;;;14.02;4.45;;;;;;;3.64;73.06;99919.75;4424671;32;20129;-80
2023/12/16 02:01:35;;;;;;;13.35;4.87;;;;;;;3.43;72.85;99924.53;4424281;32;20106;-81
2023/12/16 02:04:02;;;;;;;13.00;4.60;;;;;;;3.59;72.23;99930.72;4424998;32;20154;-80
2023/12/16 02:06:29;;;;;;;13.35;4.30;;;;;;;4.18;70.51;99918.81;4426297;32;20097;-80
2023/12/16 02:08:56;;;;;;;10.80;4.60;;;;;;;4.39;69.08;99928.44;4424705;32;20114;-81
2023/12/16 02:11:23;;;;;;;11.82;4.28;;;;;;;4.44;68.54;99928.47;4426441;32;20149;-80
2023/12/16 02:13:51;;;;;;;11.95;4.65;;;;;;;3.83;70.84;99931.13;4426432;32;20077;-80
2023/12/16 02:16:18;;;;;;;11.80;4.57;;;;;;;4.02;71.14;99942.41;4425933;32;20449;-80
2023/12/16 02:18:45;;;;;;;13.30;5.12;;;;;;;4.46;68.91;99945.53;4426358;32;20109;-80
2023/12/16 02:21:12;;;;;;;14.18;4.97;;;;;;;4.19;69.27;99956.28;4426375;32;20633;-80
2023/12/16 02:23:39;;;;;;;13.07;4.75;;;;;;;3.80;70.67;99948.06;4425852;32;20097;-81
2023/12/16 02:26:06;;;;;;;13.88;4.97;;;;;;;4.15;70.29;99943.44;4426139;32;20189;-81
2023/12/16 02:28:33;;;;;;;12.73;5.03;;;;;;;4.48;69.29;99949.00;4425908;32;20161;-81
2023/12/16 02:31:00;;;;;;;12.15;5.20;;;;;;;4.80;67.36;99951.91;4426272;32;20104;-81
2023/12/16 02:33:27;;;;;;;14.00;5.25;;;;;;;5.37;64.11;99960.12;4426312;32;20077;-81
2023/12/16 02:35:55;;;;;;;11.85;4.57;;;;;;;5.19;64.33;99946.31;4425843;32;20142;-81
2023/12/16 02:38:22;;;;;;;12.57;4.87;;;;;;;5.87;61.40;99952.00;4426269;32;20105;-81
2023/12/16 02:40:50;;;;;;;12.37;4.97;;;;;;;6.22;60.21;99949.66;4426183;32;20094;-81
2023/12/16 02:43:17;;;;;;;12.30;4.85;;;;;;;6.34;59.26;99962.53;4425773;32;20144;-81
2023/12/16 02:45:44;;;;;;;12.77;4.95;;;;;;;6.91;57.54;99958.44;4426150;32;20112;-81
2023/12/16 02:48:11;;;;;;;13.82;5.12;;;;;;;7.49;54.67;99954.25;4425928;32;20094;-80
2023/12/16 02:50:38;;;;;;;13.15;5.28;;;;;;;7.34;54.66;99959.41;4425806;32;20103;-80
2023/12/16 02:53:06;;;;;;;14.80;5.72;;;;;;;6.78;56.63;99946.44;4426223;32;20105;-80
2023/12/16 02:55:33;;;;;;;13.07;4.93;;;;;;;6.15;58.67;99948.75;4426073;32;20089;-80
2023/12/16 02:58:00;;;;;;;13.52;5.40;;;;;;;6.20;59.09;99952.22;4425646;32;20178;-80
2023/12/16 03:00:27;;;;;;;14.27;5.57;;;;;;;6.86;57.16;99966.16;4423678;32;20109;-80
2023/12/16 03:02:54;;;;;;;13.80;5.30;;;;;;;6.28;58.31;99962.53;4425944;32;20070;-80
2023/12/16 03:05:21;;;;;;;13.45;5.20;;;;;;;6.49;57.62;99970.31;4425610;32;20106;-81
2023/12/16 03:07:48;;;;;;;13.77;5.07;;;;;;;5.70;60.13;99974.91;4425941;32;20090;-81
2023/12/16 03:10:15;;;;;;;13.65;5.07;;;;;;;5.13;62.86;99969.31;4425850;32;20156;-81
2023/12/16 03:12:44;;;;;;;15.20;5.68;;;;;;;5.26;63.57;99977.97;4425723;32;20090;-81
2023/12/16 03:15:11;;;;;;;14.73;5.80;;;;;;;4.60;66.58;99972.16;4425030;32;20122;-81
2023/12/16 03:17:38;;;;;;;15.90;5.80;;;;;;;4.56;66.42;99977.19;4425557;32;20113;-81
2023/12/16 03:20:08;;;;;;;17.23;6.12;;;;;;;4.48;67.93;99983.94;4425977;32;20191;-81
2023/12/16 03:22:35;;;;;;;14.27;5.47;;;;;;;4.57;66.39;99977.25;4425945;32;20089;-80
2023/12/16 03:25:02;;;;;;;13.82;5.53;;;;;;;4.66;66.97;99979.03;4425471;32;20108;-81
2023/12/16 03:27:29;;;;;;;13.52;5.45;;;;;;;5.47;64.19;99980.72;4426041;32;20101;-81
2023/12/16 03:29:56;;;;;;;14.23;5.80;;;;;;;5.54;63.83;99980.78;4425803;32;20151;-81
2023/12/16 03:32:23;;;;;;;16.02;6.37;;;;;;;4.90;65.32;99988.69;4425548;32;20464;-81
2023/12/16 03:34:50;;;;;;;16.08;5.82;;;;;;;4.31;67.52;99987.13;4425741;32;20437;-81
2023/12/16 03:37:17;;;;;;;15.13;5.87;;;;;;;5.01;66.11;99988.81;4425941;32;20094;-81
2023/12/16 03:39:44;;;;;;;14.63;5.43;;;;;;;5.44;64.06;99996.06;4425353;32;20098;-81
2023/12/16 03:42:11;;;;;;;14.77;5.93;;;;;;;5.49;63.53;100002.06;4425726;32;20106;-80
2023/12/16 03:44:38;;;;;;;14.40;5.60;;;;;;;5.15;64.14;100000.03;4425694;32;20132;-81
2023/12/16 03:47:05;;;;;;;14.38;5.87;;;;;;;5.12;64.73;100000.88;4425484;32;20090;-81
2023/12/16 03:49:32;;;;;;;16.08;5.78;;;;;;;6.07;61.89;100019.63;4425704;32;20089;-81
2023/12/16 03:52:00;;;;;;;13.70;5.70;;;;;;;5.12;64.86;100020.47;4425741;32;20085;-80
2023/12/16 03:54:27;;;;;;;16.08;5.80;;;;;;;5.34;63.44;100024.13;4425352;32;20121;-81
2023/12/16 03:56:54;;;;;;;14.18;5.72;;;;;;;5.23;65.25;100034.25;4411695;32;20120;-81
2023/12/16 03:59:21;;;;;;;16.62;6.15;;;;;;;5.03;66.40;100040.84;4425632;32;20081;-81
2023/12/16 04:01:48;;;;;;;16.25;5.72;;;;;;;4.37;68.50;100040.03;4425344;32;20514;-81
2023/12/16 04:04:15;;;;;;;15.32;5.87;;;;;;;3.30;74.39;100038.31;4421886;32;20120;-80
2023/12/16 04:06:45;;;;;;;15.68;5.53;;;;;;;3.64;75.19;100037.19;4425298;32;20105;-81
2023/12/16 04:09:12;;;;;;;16.70;6.25;;;;;;;3.78;73.57;100051.03;4425353;32;20082;-81
2023/12/16 04:11:48;;;;;;;16.92;6.28;;;;;;;3.80;74.26;100058.72;4419360;32;20077;-80
2023/12/16 04:14:15;;;;;;;16.92;6.70;;;;;;;4.31;71.47;100058.66;4425298;32;20098;-81
2023/12/16 04:16:42;;;;;;;18.67;6.75;;;;;;;4.23;71.01;100051.72;4425482;32;20136;-80
2023/12/16 04:19:09;;;;;;;18.05;6.85;;;;;;;4.25;69.96;100060.25;4425481;32;20090;-80
2023/12/16 04:21:37;;;;;;;18.95;7.35;;;;;;;4.23;71.01;100059.38;4424058;32;20081;-80
2023/12/16 04:24:04;;;;;;;15.43;6.20;;;;;;;5.25;66.84;100059.84;4425412;32;20112;-80
2023/12/16 04:26:31;;;;;;;16.75;6.28;;;;;;;4.29;69.55;100056.94;4425014;32;20161;-80
2023/12/16 04:28:58;;;;;;;17.02;6.32;;;;;;;5.27;66.66;100053.03;4425104;32;20093;-81
2023/12/16 04:31:25;;;;;;;16.12;5.55;;;;;;;4.41;69.10;100058.81;4425512;32;20107;-80
2023/12/16 04:33:54;;;;;;;15.48;6.25;;;;;;;5.28;66.30;100067.56;4425443;32;20762;-80
2023/12/16 04:36:22;;;;;;;16.35;6.28;;;;;;;5.35;66.18;100054.84;4424992;32;20504;-81
2023/12/16 04:38:49;;;;;;;19.17;7.37;;;;;;;6.02;63.32;100070.84;4425327;32;20120;-80
2023/12/16 04:41:16;;;;;;;16.87;5.90;;;;;;;5.05;66.24;100068.16;4425464;32;20143;-80
2023/12/16 04:43:43;;;;;;;15.23;6.10;;;;;;;4.98;66.00;100068.06;4424981;32;20160;-81
2023/12/16 04:46:10;;;;;;;15.88;6.35;;;;;;;4.93;66.12;100073.12;4425296;32;20112;-81
2023/12/16 04:48:37;;;;;;;18.05;6.53;;;;;;;4.40;68.53;100059.62;4425313;32;20089;-80
2023/12/16 04:51:05;;;;;;;20.08;6.97;;;;;;;3.82;70.72;100074.91;4425057;32;20133;-81
2023/12/16 04:53:32;;;;;;;17.95;6.78;;;;;;;3.44;72.45;100080.22;4425434;32;20106;-80
2023/12/16 04:55:59;;;;;;;16.55;6.18;;;;;;;4.05;70.76;100081.28;4424879;32;20094;-80
2023/12/16 04:58:28;;;;;;;14.48;5.57;;;;;;;3.31;76.90;100077.44;4425269;32;20118;-80
2023/12/16 05:00:55;;;;;;;15.23;6.03;;;;;;;3.36;78.49;100076.66;4411779;32;20424;-80
2023/12/16 05:03:23;;;;;;;15.70;5.22;;;;;;;4.02;76.23;100082.91;4424868;32;20113;-80
2023/12/16 05:05:50;;;;;;;19.42;7.03;;;;;;;4.09;76.25;100073.66;4425294;32;20090;-80
2023/12/16 05:08:19;;;;;;;17.60;7.30;;;;;;;4.37;75.33;100080.91;4421420;32;20558;-80
2023/12/16 05:10:49;;;;;;;14.30;5.80;;;;;;;4.16;75.82;100085.69;4424926;32;20073;-81
2023/12/16 05:13:16;;;;;;;17.77;6.20;;;;;;;4.44;75.59;100085.25;4425140;32;20116;-80
2023/12/16 05:15:43;;;;;;;18.17;6.53;;;;;;;4.05;76.62;100094.06;4411300;32;20102;-80
2023/12/16 05:18:10;;;;;;;14.60;5.87;;;;;;;4.09;77.07;100083.88;4411000;32;20558;-81
2023/12/16 05:20:37;;;;;;;17.52;7.15;;;;;;;3.88;80.02;100085.25;4425113;32;20441;-81
2023/12/16 05:23:04;;;;;;;16.80;6.40;;;;;;;3.76;79.35;100078.25;4425148;32;20107;-80
2023/12/16 05:25:31;;;;;;;18.08;7.05;;;;;;;4.94;73.87;100085.94;4424544;32;20470;-80
2023/12/16 05:27:58;;;;;;;19.45;7.35;;;;;;;5.30;71.52;100089.75;4425071;32;20225;-80
2023/12/16 05:30:25;;;;;;;19.33;7.40;;;;;;;5.35;70.23;100089.81;4425027;32;20082;-80
2023/12/16 05:32:52;;;;;;;18.35;7.43;;;;;;;5.69;68.67;100091.00;4424684;32;20094;-81
2023/12/16 05:35:20;;;;;;;16.92;6.93;;;;;;;5.05;71.87;100086.06;4424875;32;20168;-80
2023/12/16 05:37:48;;;;;;;18.42;7.35;;;;;;;5.64;69.67;100090.12;4424659;32;20139;-80
2023/12/16 05:40:15;;;;;;;19.23;7.70;;;;;;;5.62;69.51;100087.53;4424049;32;20115;-81
2023/12/16 05:42:42;;;;;;;19.83;7.97;;;;;;;5.87;67.53;100103.16;4424888;32;20503;-81
2023/12/16 05:45:09;;;;;;;21.98;7.85;;;;;;;5.98;66.92;100109.25;4424413;32;20106;-81
2023/12/16 05:47:36;;;;;;;19.12;7.50;;;;;;;5.43;68.84;100107.00;4424639;32;20437;-81
2023/12/16 05:50:05;;;;;;;18.30;7.03;;;;;;;5.66;68.91;100108.94;4424771;32;20086;-80
2023/12/16 05:52:32;;;;;;;17.15;6.25;;;;;;;4.37;73.71;100119.25;4424381;32;20090;-81
2023/12/16 05:54:59;;;;;;;16.20;5.35;;;;;;;4.06;77.29;100120.47;4424735;32;20167;-81
2023/12/16 05:57:26;;;;;;;22.08;8.48;;;;;;;3.77;81.18;100127.63;4410954;32;20094;-81
2023/12/16 05:59:53;;;;;;;17.90;7.12;;;;;;;3.63;84.13;100123.97;4424225;32;20115;-80
2023/12/16 06:02:20;;;;;;;22.35;8.60;;;;;;;3.86;83.45;100127.78;4424624;32;20156;-80
2023/12/16 06:04:47;;;;;;;20.10;7.85;;;;;;;3.80;83.17;100119.13;4424576;32;20478;-80
2023/12/16 06:07:14;;;;;;;18.33;7.40;;;;;;;4.10;82.70;100114.56;4423064;32;20103;-80
2023/12/16 06:09:41;;;;;;;21.37;7.12;;;;;;;4.06;82.17;100112.78;4424138;32;20424;-80
2023/12/16 06:12:08;;;;;;;18.73;6.50;;;;;;;4.28;81.66;100125.06;4424498;32;20130;-80
2023/12/16 06:14:35;;;;;;;15.18;5.97;;;;;;;3.80;84.26;100120.00;4424108;32;20437;-80
2023/12/16 06:17:02;;;;;;;21.40;7.72;;;;;;;3.62;85.57;100128.22;4424212;32;20440;-80
2023/12/16 06:19:29;;;;;;;15.45;5.93;;;;;;;3.93;85.56;100131.28;4424375;32;20137;-80
2023/12/16 06:21:56;;;;;;;17.80;6.30;;;;;;;4.02;85.87;100128.87;4423992;32;20156;-80
2023/12/16 06:24:24;;;;;;;15.40;5.82;;;;;;;4.25;84.94;100125.03;4424163;32;20107;-80
2023/12/16 06:26:53;;;;;;;16.37;6.18;;;;;;;4.40;84.74;100132.06;4424163;32;20103;-80
2023/12/16 06:29:20;;;;;;;18.23;6.87;;;;;;;4.92;81.93;100126.00;4423947;32;20100;-80
2023/12/16 06:31:47;;;;;;;18.95;7.12;;;;;;;4.37;83.35;100137.12;4424167;32;20090;-80
2023/12/16 06:34:16;;;;;;;20.17;7.65;;;;;;;4.21;84.51;100136.03;4423849;32;20111;-80
2023/12/16 06:36:44;;;;;;;16.95;5.97;;;;;;;4.19;85.41;100140.25;4423998;32;20113;-80
2023/12/16 06:39:11;;;;;;;20.67;6.50;;;;;;;4.40;85.26;100149.09;4410435;32;20449;-80
2023/12/16 06:41:38;;;;;;;14.27;5.65;;;;;;;4.74;84.48;100146.19;4423658;32;20433;-80
2023/12/16 06:44:05;;;;;;;17.50;6.32;;;;;;;5.17;79.58;100149.31;4423929;32;20155;-80
2023/12/16 06:46:32;;;;;;;19.67;6.85;;;;;;;5.77;76.59;100145.75;4423783;32;20086;-80
2023/12/16 06:48:59;;;;;;;17.73;6.62;;;;;;;5.53;76.44;100138.69;4423563;32;20157;-80
2023/12/16 06:51:26;;;;;;;17.17;7.28;;;;;;;5.41;78.18;100141.06;4424810;32;20105;-80
2023/12/16 06:53:53;;;;;;;20.67;6.87;;;;;;;5.18;77.59;100141.66;4426146;32;20102;-80
2023/12/16 06:56:20;;;;;;;20.73;8.52;;;;;;;5.28;78.99;100149.47;4425685;32;20558;-80
2023/12/16 06:58:47;;;;;;;41.08;16.48;;;;;;;6.68;71.56;100151.63;4424924;32;20415;-80
2023/12/16 07:01:14;;;;;;;19.08;8.45;;;;;;;7.19;67.64;100147.66;4426088;32;20086;-80
2023/12/16 07:03:41;;;;;;;23.08;9.32;;;;;;;7.49;64.55;100136.63;4425827;32;20086;-80
2023/12/16 07:06:10;;;;;;;26.08;11.27;;;;;;;7.85;67.32;100140.12;4425774;32;20104;-81
2023/12/16 07:08:37;;;;;;;20.95;8.45;;;;;;;8.83;64.26;100158.16;4425794;32;20078;-81
2023/12/16 07:11:04;;;;;;;19.42;8.13;;;;;;;9.23;60.34;100159.75;4419301;32;20105;-81
2023/12/16 07:13:31;;;;;;;17.98;7.90;;;;;;;8.76;60.28;100156.47;4426065;32;20089;-81
2023/12/16 07:16:03;;;;;;;19.02;7.65;;;;;;;9.87;56.99;100158.56;4425871;32;20097;-81
2023/12/16 07:18:30;;;;;;;17.23;6.45;;;;;;;10.99;54.19;100174.00;4411838;32;20077;-81
2023/12/16 07:20:57;;;;;;;16.12;6.90;;;;;;;11.22;51.58;100169.44;4425941;32;20097;-81
2023/12/16 07:23:24;;;;;;;17.02;6.62;;;;;;;11.88;49.37;100177.22;4425670;32;20448;-81
2023/12/16 07:25:51;;;;;;;14.55;6.07;;;;;;;12.14;49.25;100176.84;4425657;32;20152;-81
2023/12/16 07:28:18;;;;;;;13.48;5.47;;;;;;;11.99;48.87;100173.63;4425888;32;20090;-81
2023/12/16 07:30:45;;;;;;;14.48;6.30;;;;;;;12.31;48.54;100178.31;4425509;32;20093;-80
2023/12/16 07:33:12;;;;;;;16.77;6.35;;;;;;;12.73;46.73;100187.94;4425869;32;20108;-80
2023/12/16 07:35:40;;;;;;;16.73;7.25;;;;;;;13.00;46.60;100190.94;4419370;32;20436;-80
2023/12/16 07:38:08;;;;;;;14.57;6.55;;;;;;;12.84;46.39;100195.53;4411763;32;20085;-80
2023/12/16 07:40:36;;;;;;;17.55;7.07;;;;;;;12.32;48.36;100192.97;4424633;32;20158;-81
2023/12/16 07:43:03;;;;;;;14.87;6.43;;;;;;;13.13;47.33;100200.19;4424663;32;20471;-81
2023/12/16 07:45:31;;;;;;;15.80;6.55;;;;;;;14.02;44.48;100196.63;4425194;32;20108;-81
2023/12/16 07:47:58;;;;;;;14.38;6.70;;;;;;;14.15;44.18;100194.62;4425556;32;20107;-81
2023/12/16 07:50:25;;;;;;;12.93;5.35;;;;;;;14.37;43.55;100197.56;4425633;32;20102;-81
2023/12/16 07:52:52;;;;;;;15.95;6.07;;;;;;;13.09;46.93;100197.69;4425368;32;20089;-80
2023/12/16 07:55:19;;;;;;;17.00;5.80;;;;;;;11.68;50.56;100192.13;4425562;32;20176;-80
2023/12/16 07:57:46;;;;;;;14.82;5.90;;;;;;;10.96;53.42;100198.16;4425648;32;20159;-80
2023/12/16 08:00:13;;;;;;;13.73;5.78;;;;;;;10.53;55.09;100202.84;4425202;32;20105;-80
2023/12/16 08:02:40;;;;;;;13.50;5.47;;;;;;;10.83;54.09;100196.53;4425148;32;20111;-80
2023/12/16 08:05:07;;;;;;;12.23;5.75;;;;;;;10.12;56.11;100190.22;4420947;32;20241;-80
2023/12/16 08:07:34;;;;;;;15.32;5.80;;;;;;;10.07;56.57;100194.53;4426393;32;20082;-79
2023/12/16 08:10:02;;;;;;;13.75;5.05;;;;;;;8.38;61.63;100191.62;4425769;32;20113;-80
2023/12/16 08:12:29;;;;;;;16.85;6.05;;;;;;;8.29;62.64;100191.59;4423064;32;20125;-80
2023/12/16 08:14:56;;;;;;;14.48;5.78;;;;;;;8.23;63.82;100188.19;4425614;32;20161;-80
2023/12/16 08:17:23;;;;;;;14.30;5.57;;;;;;;8.97;60.52;100188.16;4425610;32;20089;-80
2023/12/16 08:19:51;;;;;;;14.68;6.22;;;;;;;8.41;62.61;100195.94;4425085;32;20094;-80
2023/12/16 08:22:19;;;;;;;13.73;5.50;;;;;;;8.69;61.74;100194.19;4425493;32;20093;-80
2023/12/16 08:24:46;;;;;;;14.70;6.12;;;;;;;9.18;60.38;100200.13;4425368;32;20124;-80
2023/12/16 08:27:13;;;;;;;13.77;5.12;;;;;;;9.06;59.71;100192.44;4423995;32;20090;-80
2023/12/16 08:29:40;;;;;;;12.80;4.93;;;;;;;9.15;60.10;100196.72;4418940;32;20159;-80
2023/12/16 08:32:07;;;;;;;15.32;5.68;;;;;;;9.55;59.15;100210.28;4425372;32;20109;-80
2023/12/16 08:34:34;;;;;;;14.18;5.62;;;;;;;10.49;56.63;100213.19;4425219;32;20154;-80
2023/12/16 08:37:01;;;;;;;12.60;5.20;;;;;;;10.85;55.56;100210.31;4420072;32;20078;-80
2023/12/16 08:39:28;;;;;;;13.43;5.22;;;;;;;11.86;52.44;100215.19;4424300;32;20124;-80
2023/12/16 08:41:55;;;;;;;12.80;5.80;;;;;;;12.09;51.91;100222.63;4411361;32;20128;-79
2023/12/16 08:44:22;;;;;;;13.25;5.18;;;;;;;11.95;52.80;100232.31;4425411;32;20165;-80
2023/12/16 08:46:49;;;;;;;12.07;5.10;;;;;;;11.61;52.42;100229.28;4411388;32;20097;-80
2023/12/16 08:49:16;;;;;;;12.68;4.68;;;;;;;11.76;52.62;100233.41;4425049;32;20105;-79
2023/12/16 08:51:43;;;;;;;14.25;5.35;;;;;;;11.02;54.45;100238.53;4424170;32;20102;-79
2023/12/16 08:54:10;;;;;;;13.05;5.35;;;;;;;11.46;53.47;100226.87;4421141;32;20128;-79
2023/12/16 08:56:37;;;;;;;12.55;5.65;;;;;;;10.66;57.03;100232.00;4424823;32;20089;-80
2023/12/16 08:59:04;;;;;;;13.62;5.30;;;;;;;10.25;59.81;100225.41;4411566;32;20579;-80
2023/12/16 09:01:32;;;;;;;13.52;5.07;;;;;;;9.07;63.28;100219.91;4424942;32;20392;-80
2023/12/16 09:03:59;;;;;;;14.50;5.80;;;;;;;8.65;64.87;100216.53;4425296;32;20081;-79
2023/12/16 09:06:26;;;;;;;16.08;5.53;;;;;;;8.80;65.18;100212.22;4424979;32;20155;-80
2023/12/16 09:08:54;;;;;;;14.90;6.50;;;;;;;8.13;67.86;100219.03;4424709;32;20108;-80
2023/12/16 09:11:21;;;;;;;21.27;6.22;;;;;;;7.79;70.76;100219.81;4425212;32;20165;-80
2023/12/16 09:13:48;;;;;;;13.38;5.37;;;;;;;7.88;69.79;100227.53;4423872;32;20364;-80
2023/12/16 09:16:15;;;;;;;13.57;5.47;;;;;;;7.63;70.67;100223.16;4421023;32;20574;-79
2023/12/16 09:18:42;;;;;;;16.15;5.72;;;;;;;7.82;70.55;100230.09;4425128;32;20097;-80
2023/12/16 09:21:09;;;;;;;15.15;6.18;;;;;;;7.81;70.22;100239.50;4425157;32;20433;-80
2023/12/16 09:23:36;;;;;;;16.87;6.43;;;;;;;7.86;70.42;100229.22;4423509;32;20516;-80
2023/12/16 09:26:05;;;;;;;17.67;6.30;;;;;;;8.27;69.70;100241.31;4424843;32;20080;-80
2023/12/16 09:28:32;;;;;;;15.32;5.75;;;;;;;8.57;69.13;100246.53;4411258;32;20173;-79
2023/12/16 09:30:59;;;;;;;16.95;5.80;;;;;;;8.64;67.50;100230.25;4424587;32;20789;-79
2023/12/16 09:33:26;;;;;;;16.35;5.47;;;;;;;7.07;73.34;100237.44;4425034;32;20086;-79
2023/12/16 09:35:54;;;;;;;15.48;6.60;;;;;;;7.25;74.08;100226.44;4424880;32;20077;-79
2023/12/16 09:38:21;;;;;;;17.30;6.50;;;;;;;7.47;73.62;100235.94;4424548;32;20090;-79
2023/12/16 09:40:48;;;;;;;14.50;5.65;;;;;;;8.51;69.67;100235.41;4424868;32;20169;-79
2023/12/16 09:43:16;;;;;;;12.52;5.60;;;;;;;9.37;64.50;100234.44;4424832;32;20103;-80
2023/12/16 09:45:46;;;;;;;14.38;5.53;;;;;;;9.05;65.88;100238.78;4424334;32;20141;-79
2023/12/16 09:48:15;;;;;;;14.63;5.70;;;;;;;8.59;67.75;100242.25;4423730;32;20136;-80
2023/12/16 09:50:43;;;;;;;14.00;5.35;;;;;;;8.67;67.12;100249.97;4423318;32;20106;-79
2023/12/16 09:53:10;;;;;;;13.52;5.90;;;;;;;9.93;62.79;100241.06;4410996;32;20155;-80
2023/12/16 09:55:37;;;;;;;12.55;5.40;;;;;;;10.03;61.82;100242.72;4423414;32;20108;-80
2023/12/16 09:58:05;;;;;;;15.93;5.70;;;;;;;10.02;62.42;100245.31;4423196;32;20155;-80
2023/12/16 10:00:33;;;;;;;15.88;5.15;;;;;;;9.77;62.10;100240.25;4423541;32;20538;-80
2023/12/16 10:03:00;;;;;;;12.80;5.45;;;;;;;10.72;59.22;100240.53;4423384;32;20090;-79
2023/12/16 10:05:28;;;;;;;13.43;5.20;;;;;;;9.79;61.98;100248.00;4422870;32;20123;-80
2023/12/16 10:08:04;;;;;;;13.93;5.12;;;;;;;10.69;59.43;100242.28;4423378;32;20120;-80
2023/12/16 10:10:32;;;;;;;13.62;5.30;;;;;;;10.70;58.60;100247.44;4424556;32;20101;-80
2023/12/16 10:13:04;;;;;;;13.73;5.40;;;;;;;11.45;56.23;100240.69;4424137;32;20120;-79
2023/12/16 10:15:32;;;;;;;12.73;5.25;;;;;;;10.52;58.83;100241.56;4424393;32;20085;-80
2023/12/16 10:18:01;;;;;;;14.95;5.85;;;;;;;9.60;62.34;100246.38;4424363;32;20101;-80
2023/12/16 10:20:29;;;;;;;14.95;6.03;;;;;;;10.30;60.02;100241.72;4410347;32;20369;-79
2023/12/16 10:23:01;;;;;;;14.68;5.55;;;;;;;10.17;60.16;100237.47;4410498;32;20158;-79
2023/12/16 10:25:30;;;;;;;14.80;5.43;;;;;;;11.05;56.60;100240.22;4425296;32;20086;-80
2023/12/16 10:28:00;;;;;;;11.98;5.28;;;;;;;10.46;59.05;100231.28;4426031;32;20121;-80
2023/12/16 10:30:28;;;;;;;10.75;4.60;;;;;;;11.06;56.83;100235.09;4412692;32;20132;-81
2023/12/16 10:32:56;;;;;;;12.23;4.53;;;;;;;10.78;58.16;100231.03;4426030;32;20094;-82
2023/12/16 10:35:23;;;;;;;12.05;5.47;;;;;;;11.18;56.65;100229.78;4426137;32;20130;-81
2023/12/16 10:37:51;;;;;;;13.43;5.40;;;;;;;9.76;60.61;100229.97;4412298;32;20105;-82
2023/12/16 10:40:26;;;;;;;16.42;5.32;;;;;;;9.47;62.51;100230.97;4426022;32;20142;-82
2023/12/16 10:42:54;;;;;;;13.27;5.12;;;;;;;9.89;60.46;100228.16;4413195;32;20085;-81
2023/12/16 10:45:21;;;;;;;13.82;4.87;;;;;;;10.54;58.44;100230.37;4426029;32;20116;-81
2023/12/16 10:47:50;;;;;;;13.00;5.10;;;;;;;10.13;60.12;100234.06;4425638;32;20105;-82
2023/12/16 10:50:20;;;;;;;15.23;5.43;;;;;;;10.47;59.27;100233.00;4426138;32;20146;-82
2023/12/16 10:52:56;;;;;;;12.00;4.82;;;;;;;10.63;59.01;100227.72;4426100;32;20090;-81
2023/12/16 10:55:29;;;;;;;12.70;4.68;;;;;;;11.11;57.29;100227.28;4424576;32;20094;-81
2023/12/16 10:58:14;;;;;;;12.25;4.60;;;;;;;11.94;54.56;100225.44;4425939;32;20164;-81
2023/12/16 11:00:42;;;;;;;10.98;4.72;;;;;;;12.30;53.08;100216.28;4403579;32;20115;-82
2023/12/16 11:03:15;;;;;;;12.13;4.43;;;;;;;12.30;52.91;100221.47;4431276;32;20062;-81
2023/12/16 11:05:49;;;;;;;11.95;4.50;;;;;;;11.46;54.98;100208.78;4440400;32;20117;-81
2023/12/16 11:08:16;;;;;;;12.63;4.60;;;;;;;11.26;55.32;100211.59;4440528;32;20062;-81
2023/12/16 11:10:44;;;;;;;11.52;4.40;;;;;;;11.36;54.90;100210.63;4440948;32;20125;-81
2023/12/16 11:13:12;;;;;;;13.73;4.40;;;;;;;10.82;56.25;100204.31;4427684;32;20062;-82
2023/12/16 11:15:39;;;;;;;11.45;4.32;;;;;;;10.91;56.08;100209.38;4447986;27;20636;-81
2023/12/16 11:18:16;;;;;;;12.77;4.22;;;;;;;9.71;59.59;100175.84;4427589;32;20115;-81
2023/12/16 11:20:52;;;;;;;11.50;4.20;;;;;;;10.14;58.79;100201.38;4427704;32;20118;-83
2023/12/16 11:23:19;;;;;;;11.88;4.75;;;;;;;10.72;57.16;100213.84;4440344;32;20066;-83
2023/12/16 11:26:17;;;;;;;13.07;4.62;;;;;;;10.77;57.47;100208.66;4440478;32;20050;-81
2023/12/16 11:28:44;;;;;;;;;;;;;;;10.87;55.79;100177.56;4430992;32;20119;-79